Time;durP1;ratioP1;P1;durP2;ratioP2;P2;SDS_P1;SDS_P2;PMS_P1;PMS_P2;Temp;Humidity;BMP_temperature;BMP_pressure;BME280_temperature;BME280_humidity;BME280_pressure;Samples;Min_cycle;Max_cycle;Signal;HPM_P1;HPM_P2
2021/09/10 00:00:37;;;;;;;;;4.00;2.00;;;;;23.09;63.28;100833.16;5040002;28;45408;-74
2021/09/10 00:03:03;;;;;;;;;2.00;2.00;;;;;23.09;63.56;100835.84;5048593;28;45807;-75
2021/09/10 00:05:28;;;;;;;;;4.00;3.00;;;;;23.07;63.27;100837.75;5040994;28;58725;-75
2021/09/10 00:07:54;;;;;;;;;2.00;2.00;;;;;23.09;63.97;100843.94;5054229;28;45408;-76
2021/09/10 00:10:19;;;;;;;;;4.67;3.00;;;;;23.06;63.57;100846.75;5049556;28;49409;-76
2021/09/10 00:12:45;;;;;;;;;2.00;2.00;;;;;23.04;63.67;100837.84;5051340;28;45350;-76
2021/09/10 00:15:10;;;;;;;;;2.33;2.33;;;;;23.03;63.44;100841.50;5052100;28;47233;-74
2021/09/10 00:17:36;;;;;;;;;2.00;2.00;;;;;22.99;63.29;100838.03;5048142;28;45272;-75
2021/09/10 00:20:01;;;;;;;;;2.00;2.00;;;;;22.95;63.72;100839.09;5053371;28;45563;-75
2021/09/10 00:22:27;;;;;;;;;3.00;2.00;;;;;22.90;64.56;100833.00;5054205;28;45444;-76
2021/09/10 00:24:52;;;;;;;;;2.00;2.00;;;;;22.86;64.19;100823.28;5051591;28;46409;-76
2021/09/10 00:27:17;;;;;;;;;2.00;2.00;;;;;22.84;64.31;100830.53;5049950;28;61015;-74
2021/09/10 00:29:43;;;;;;;;;2.00;2.00;;;;;22.82;64.28;100829.72;5047377;28;45352;-77
2021/09/10 00:32:08;;;;;;;;;4.00;2.00;;;;;22.78;64.09;100823.59;5052796;28;45313;-75
2021/09/10 00:34:34;;;;;;;;;3.67;1.00;;;;;22.81;64.43;100831.56;5046319;28;63156;-74
2021/09/10 00:36:59;;;;;;;;;3.33;2.33;;;;;22.79;65.17;100828.03;5047791;28;59772;-74
2021/09/10 00:39:24;;;;;;;;;2.00;2.00;;;;;22.75;64.50;100823.72;5058903;28;51598;-74
2021/09/10 00:41:50;;;;;;;;;2.67;2.00;;;;;22.75;64.28;100826.41;5055555;28;45405;-75
2021/09/10 00:44:15;;;;;;;;;3.67;2.00;;;;;22.74;64.81;100830.94;5050790;28;58686;-74
2021/09/10 00:46:41;;;;;;;;;2.00;2.00;;;;;22.74;64.70;100840.78;5053735;28;45377;-76
2021/09/10 00:49:07;;;;;;;;;2.00;2.00;;;;;22.72;65.17;100846.25;5052109;28;45421;-76
2021/09/10 00:51:32;;;;;;;;;1.67;1.67;;;;;22.71;64.96;100851.69;5051043;28;45524;-75
2021/09/10 00:53:57;;;;;;;;;5.00;3.67;;;;;22.71;64.76;100849.88;5052927;28;47363;-75
2021/09/10 00:56:23;;;;;;;;;2.00;2.00;;;;;22.73;65.18;100847.13;5047861;28;45395;-75
2021/09/10 00:58:48;;;;;;;;;4.00;2.33;;;;;22.74;65.08;100851.56;5047753;28;53524;-75
2021/09/10 01:01:14;;;;;;;;;4.67;2.00;;;;;22.77;65.63;100853.25;5054629;28;46099;-74
2021/09/10 01:03:39;;;;;;;;;2.00;2.00;;;;;22.78;64.93;100857.72;5034124;28;51348;-75
2021/09/10 01:06:05;;;;;;;;;2.67;2.67;;;;;22.80;65.23;100862.13;5051377;28;45404;-76
2021/09/10 01:08:30;;;;;;;;;1.67;1.67;;;;;22.79;64.74;100851.38;5046851;28;45245;-74
2021/09/10 01:10:55;;;;;;;;;2.00;2.00;;;;;22.81;64.83;100852.22;5035366;28;47495;-75
2021/09/10 01:13:22;;;;;;;;;2.33;2.33;;;;;22.86;64.60;100866.38;5053964;28;46266;-74
2021/09/10 01:15:47;;;;;;;;;2.00;2.00;;;;;22.86;64.88;100858.28;5040392;28;45402;-75
2021/09/10 01:18:13;;;;;;;;;3.67;3.00;;;;;22.88;64.51;100862.69;5039500;28;54524;-76
2021/09/10 01:20:38;;;;;;;;;2.33;2.33;;;;;22.83;64.35;100851.19;5057958;28;49860;-75
2021/09/10 01:23:03;;;;;;;;;5.00;2.00;;;;;22.91;65.05;100856.34;5055682;28;46319;-75
2021/09/10 01:25:29;;;;;;;;;1.33;1.33;;;;;22.90;65.06;100851.88;5050255;28;58100;-76
2021/09/10 01:27:58;;;;;;;;;3.00;1.33;;;;;22.91;64.77;100851.81;5051498;28;45471;-74
2021/09/10 01:30:29;;;;;;;;;2.67;2.00;;;;;22.90;64.62;100863.50;5057248;28;45423;-75
2021/09/10 01:32:55;;;;;;;;;2.00;2.00;;;;;22.85;64.55;100857.44;5058381;28;45652;-75
2021/09/10 01:35:20;;;;;;;;;2.00;2.00;;;;;22.90;64.20;100871.59;5056817;28;45353;-76
2021/09/10 01:37:46;;;;;;;;;3.67;2.67;;;;;22.92;64.71;100869.72;5055319;28;45332;-74
2021/09/10 01:40:11;;;;;;;;;2.33;2.00;;;;;22.86;64.91;100864.56;5056153;28;45371;-75
2021/09/10 01:42:37;;;;;;;;;3.00;3.00;;;;;22.88;64.33;100870.78;5056890;28;46584;-74
2021/09/10 01:45:04;;;;;;;;;3.00;3.00;;;;;22.86;64.62;100863.69;5051124;28;45389;-76
2021/09/10 01:47:29;;;;;;;;;3.67;2.00;;;;;22.86;64.97;100878.03;5051098;28;45380;-75
2021/09/10 01:49:55;;;;;;;;;2.00;2.00;;;;;22.84;64.65;100879.88;5044797;28;45209;-74
2021/09/10 01:52:20;;;;;;;;;2.67;2.33;;;;;22.83;64.55;100869.19;5054947;28;45524;-74
2021/09/10 01:54:47;;;;;;;;;2.00;2.00;;;;;22.80;64.46;100863.91;5052716;28;45332;-75
2021/09/10 01:57:12;;;;;;;;;2.67;2.67;;;;;22.83;64.55;100866.47;5047213;28;45191;-75
2021/09/10 01:59:37;;;;;;;;;3.00;3.00;;;;;22.74;65.06;100860.53;5042887;28;45247;-75
2021/09/10 02:02:03;;;;;;;;;1.00;1.00;;;;;22.77;64.97;100872.97;5052195;28;45832;-74
2021/09/10 02:04:28;;;;;;;;;4.00;2.00;;;;;22.72;65.58;100880.38;5042700;28;45431;-75
2021/09/10 02:06:53;;;;;;;;;2.33;2.33;;;;;22.68;64.84;100871.50;5050260;28;52243;-75
2021/09/10 02:09:19;;;;;;;;;4.00;2.00;;;;;22.64;65.00;100858.25;5054591;28;54191;-74
2021/09/10 02:11:44;;;;;;;;;5.67;3.00;;;;;22.68;65.22;100871.50;5054590;28;55337;-74
2021/09/10 02:14:10;;;;;;;;;5.00;3.00;;;;;22.67;65.24;100866.19;5056144;28;45437;-75
2021/09/10 02:16:35;;;;;;;;;4.00;2.00;;;;;22.66;64.81;100872.53;5051363;28;45516;-76
2021/09/10 02:19:00;;;;;;;;;4.67;3.00;;;;;22.64;65.21;100872.59;5044560;28;51104;-75
2021/09/10 02:21:26;;;;;;;;;2.00;2.00;;;;;22.60;65.16;100868.25;5048183;28;45465;-74
2021/09/10 02:23:51;;;;;;;;;2.33;2.33;;;;;22.63;65.47;100880.72;5054261;28;58052;-74
2021/09/10 02:26:17;;;;;;;;;2.00;2.00;;;;;22.61;65.18;100882.59;5049085;28;49517;-74
2021/09/10 02:28:42;;;;;;;;;3.67;3.67;;;;;22.61;65.75;100878.09;5052300;28;52056;-75
2021/09/10 02:31:07;;;;;;;;;3.67;3.67;;;;;22.56;65.37;100873.81;5045229;28;58802;-75
2021/09/10 02:33:33;;;;;;;;;3.00;2.00;;;;;22.56;65.66;100874.69;5052351;28;45592;-74
2021/09/10 02:35:58;;;;;;;;;4.00;2.33;;;;;22.59;65.80;100881.78;5053239;28;45972;-76
2021/09/10 02:38:24;;;;;;;;;4.33;2.00;;;;;22.55;65.39;100872.06;5057907;28;45342;-75
2021/09/10 02:40:49;;;;;;;;;2.33;2.33;;;;;22.61;65.41;100879.91;5052710;28;47182;-75
2021/09/10 02:43:15;;;;;;;;;3.00;3.00;;;;;22.60;65.60;100872.75;5056860;28;45298;-74
2021/09/10 02:45:40;;;;;;;;;2.67;2.67;;;;;22.59;65.38;100879.97;5049830;28;45273;-75
2021/09/10 02:48:06;;;;;;;;;3.00;2.00;;;;;22.59;65.43;100876.41;5057456;28;50994;-74
2021/09/10 02:50:31;;;;;;;;;4.00;2.67;;;;;22.59;65.45;100876.41;5046527;28;46155;-74
2021/09/10 02:52:56;;;;;;;;;1.67;1.67;;;;;22.59;66.02;100881.78;5057233;28;45355;-76
2021/09/10 02:55:22;;;;;;;;;3.33;2.00;;;;;22.60;65.33;100880.84;5057641;28;45368;-74
2021/09/10 02:57:47;;;;;;;;;1.33;1.33;;;;;22.58;65.36;100877.31;5057492;28;51855;-73
2021/09/10 03:00:14;;;;;;;;;5.33;2.00;;;;;22.58;65.67;100870.09;5054688;28;47352;-75
2021/09/10 03:02:39;;;;;;;;;2.33;2.33;;;;;22.61;65.44;100871.81;5055271;28;45598;-75
2021/09/10 03:05:06;;;;;;;;;2.67;2.67;;;;;22.60;65.64;100864.69;5057477;28;45521;-76
2021/09/10 03:07:31;;;;;;;;;3.67;3.00;;;;;22.58;65.53;100859.34;5055054;28;45480;-74
2021/09/10 03:09:56;;;;;;;;;3.00;3.00;;;;;22.56;65.56;100861.22;5057032;28;46287;-76
2021/09/10 03:12:22;;;;;;;;;3.00;2.00;;;;;22.54;65.45;100857.72;5057098;28;51292;-74
2021/09/10 03:14:47;;;;;;;;;3.00;3.00;;;;;22.53;65.99;100864.06;5056337;28;52549;-74
2021/09/10 03:17:13;;;;;;;;;2.67;2.67;;;;;22.50;66.01;100864.16;5057676;28;45310;-74
2021/09/10 03:19:40;;;;;;;;;4.00;4.00;;;;;22.48;65.42;100863.34;5056852;28;50967;-75
2021/09/10 03:22:05;;;;;;;;;4.00;4.00;;;;;22.46;65.99;100868.78;5057262;28;45393;-76
2021/09/10 03:24:30;;;;;;;;;4.00;3.00;;;;;22.43;66.10;100874.28;5056754;28;45362;-76
2021/09/10 03:26:56;;;;;;;;;5.00;3.67;;;;;22.42;66.29;100872.50;5057371;28;45194;-73
2021/09/10 03:29:21;;;;;;;;;3.67;3.67;;;;;22.39;66.61;100866.38;5056518;28;54806;-75
2021/09/10 03:31:47;;;;;;;;;4.67;4.67;;;;;22.32;66.63;100870.22;5056325;28;45162;-74
2021/09/10 03:34:12;;;;;;;;;3.67;2.67;;;;;22.30;67.01;100867.59;5056696;28;52702;-74
2021/09/10 03:36:37;;;;;;;;;5.00;4.00;;;;;22.29;66.59;100860.44;5056928;28;45529;-74
2021/09/10 03:39:03;;;;;;;;;5.33;4.67;;;;;22.29;66.71;100870.34;5056297;28;57602;-75
2021/09/10 03:41:28;;;;;;;;;5.67;3.00;;;;;22.28;66.80;100868.59;5055267;28;50187;-75
2021/09/10 03:43:53;;;;;;;;;7.00;4.00;;;;;22.24;67.21;100865.13;5054256;28;54276;-74
2021/09/10 03:46:19;;;;;;;;;4.00;4.00;;;;;22.26;66.69;100868.63;5054489;28;45581;-76
2021/09/10 03:48:45;;;;;;;;;3.00;3.00;;;;;22.21;67.17;100857.16;5056828;28;47558;-74
2021/09/10 03:51:10;;;;;;;;;5.00;4.00;;;;;22.22;67.64;100870.56;5049586;28;45455;-74
2021/09/10 03:53:36;;;;;;;;;5.33;4.00;;;;;22.21;66.96;100873.28;5055771;28;54634;-77
2021/09/10 03:56:02;;;;;;;;;6.00;6.00;;;;;22.17;67.30;100874.38;5056944;28;45362;-74
2021/09/10 03:58:27;;;;;;;;;7.00;4.00;;;;;22.12;67.84;100873.66;5056687;28;46693;-74
2021/09/10 04:00:52;;;;;;;;;7.00;5.33;;;;;22.08;68.12;100871.97;5056345;28;53986;-75
2021/09/10 04:03:18;;;;;;;;;5.33;4.00;;;;;22.11;67.85;100878.16;5056383;28;45801;-74
2021/09/10 04:05:43;;;;;;;;;4.67;4.67;;;;;22.11;68.11;100866.53;5056205;28;53036;-75
2021/09/10 04:08:09;;;;;;;;;6.33;5.00;;;;;22.10;67.40;100862.00;5056432;28;46273;-75
2021/09/10 04:10:34;;;;;;;;;3.33;3.33;;;;;22.12;67.66;100870.97;5056314;28;45232;-76
2021/09/10 04:12:59;;;;;;;;;5.67;5.00;;;;;22.12;67.54;100870.97;5056221;28;45425;-74
2021/09/10 04:15:26;;;;;;;;;5.00;5.00;;;;;22.11;67.63;100862.03;5056308;28;51582;-76
2021/09/10 04:17:51;;;;;;;;;4.67;4.00;;;;;22.13;67.52;100864.66;5056265;28;47302;-76
2021/09/10 04:20:17;;;;;;;;;6.00;4.67;;;;;22.10;67.70;100864.72;5055497;28;57807;-76
2021/09/10 04:22:42;;;;;;;;;6.00;4.33;;;;;22.08;68.07;100877.34;5055987;28;45778;-74
2021/09/10 04:25:08;;;;;;;;;4.00;4.00;;;;;22.08;67.59;100866.59;5056246;28;46134;-74
2021/09/10 04:27:33;;;;;;;;;6.00;5.00;;;;;22.07;67.97;100867.53;5054811;28;47615;-75
2021/09/10 04:29:59;;;;;;;;;5.00;5.00;;;;;22.05;68.17;100864.91;5056305;28;45448;-74
2021/09/10 04:32:24;;;;;;;;;6.00;6.00;;;;;22.01;68.37;100862.38;5055476;28;51964;-76
2021/09/10 04:34:50;;;;;;;;;7.00;5.00;;;;;21.94;68.38;100857.22;5054775;28;45390;-75
2021/09/10 04:37:15;;;;;;;;;5.33;4.00;;;;;21.90;67.79;100857.38;5052927;28;47528;-75
2021/09/10 04:39:41;;;;;;;;;5.33;5.00;;;;;21.95;67.79;100867.03;5050158;28;45532;-73
2021/09/10 04:42:06;;;;;;;;;4.00;4.00;;;;;21.98;67.96;100858.84;5052491;28;52636;-75
2021/09/10 04:44:32;;;;;;;;;5.00;5.00;;;;;22.01;68.24;100873.13;5050762;28;45454;-75
2021/09/10 04:46:57;;;;;;;;;4.33;4.33;;;;;21.98;68.05;100866.91;5052601;28;46397;-74
2021/09/10 04:49:22;;;;;;;;;5.00;5.00;;;;;21.96;68.14;100860.72;5050202;28;58008;-78
2021/09/10 04:51:48;;;;;;;;;5.67;4.67;;;;;22.01;68.13;100870.44;5054898;28;45535;-77
2021/09/10 04:54:15;;;;;;;;;4.33;4.33;;;;;21.96;68.30;100874.16;5052281;28;45558;-76
2021/09/10 04:56:42;;;;;;;;;10.67;5.00;;;;;21.96;68.44;100873.28;5047354;28;47440;-77
2021/09/10 04:59:07;;;;;;;;;5.67;4.33;;;;;21.97;68.24;100873.22;5049891;28;45244;-77
2021/09/10 05:01:32;;;;;;;;;7.00;4.67;;;;;22.01;67.90;100862.38;5046700;28;50647;-78
2021/09/10 05:03:58;;;;;;;;;6.00;6.00;;;;;22.03;68.41;100882.00;5047610;28;45376;-79
2021/09/10 05:06:23;;;;;;;;;5.00;4.00;;;;;22.04;68.00;100883.75;5051118;28;46620;-76
2021/09/10 05:08:49;;;;;;;;;4.00;4.00;;;;;22.03;68.15;100887.38;5058692;28;56814;-76
2021/09/10 05:11:14;;;;;;;;;5.67;3.33;;;;;22.04;67.91;100886.44;5059046;28;45654;-77
2021/09/10 05:13:39;;;;;;;;;6.00;5.00;;;;;22.07;67.59;100884.53;5058204;28;45476;-77
2021/09/10 05:16:05;;;;;;;;;5.00;4.33;;;;;22.06;68.05;100892.66;5052688;28;63217;-78
2021/09/10 05:18:30;;;;;;;;;5.33;3.33;;;;;22.03;67.76;100884.69;5044877;28;51888;-79
2021/09/10 05:20:56;;;;;;;;;4.67;4.67;;;;;21.98;68.00;100884.84;5053510;28;48311;-77
2021/09/10 05:23:21;;;;;;;;;7.00;4.00;;;;;21.98;67.74;100892.91;5054459;28;45545;-76
2021/09/10 05:25:46;;;;;;;;;4.00;4.00;;;;;21.95;67.81;100895.72;5048080;28;56886;-76
2021/09/10 05:28:12;;;;;;;;;4.67;4.00;;;;;21.96;67.77;100897.47;5048401;28;56385;-77
2021/09/10 05:30:37;;;;;;;;;7.33;4.00;;;;;21.93;67.58;100895.75;5048142;28;53252;-77
2021/09/10 05:33:02;;;;;;;;;4.00;4.00;;;;;21.98;68.09;100907.25;5047911;28;45602;-76
2021/09/10 05:35:28;;;;;;;;;6.33;4.00;;;;;21.98;68.04;100899.16;5047024;28;46577;-76
2021/09/10 05:37:53;;;;;;;;;7.67;4.67;;;;;22.06;67.73;100900.72;5050132;28;45296;-77
2021/09/10 05:40:21;;;;;;;;;3.00;3.00;;;;;22.06;67.25;100890.84;5052729;28;49882;-77
2021/09/10 05:42:47;;;;;;;;;6.00;4.33;;;;;22.07;67.15;100913.25;5052934;28;45466;-76
2021/09/10 05:45:12;;;;;;;;;7.33;5.00;;;;;22.09;67.49;100914.06;5047132;28;46184;-76
2021/09/10 05:47:38;;;;;;;;;5.33;5.00;;;;;22.12;67.13;100925.63;5045352;28;45331;-76
2021/09/10 05:50:03;;;;;;;;;4.67;4.33;;;;;22.14;66.85;100920.19;5048659;28;49718;-76
2021/09/10 05:52:29;;;;;;;;;6.00;4.67;;;;;22.14;67.59;100921.06;5039438;28;45478;-76
2021/09/10 05:54:54;;;;;;;;;4.00;4.00;;;;;22.14;66.93;100917.50;5040980;28;46791;-75
2021/09/10 05:57:19;;;;;;;;;5.67;4.67;;;;;22.16;66.82;100927.28;5044362;28;45692;-77
2021/09/10 05:59:45;;;;;;;;;5.00;5.00;;;;;22.18;67.42;100932.59;5040947;28;52142;-77
2021/09/10 06:02:10;;;;;;;;;5.00;5.00;;;;;22.20;67.08;100933.41;5046191;28;49319;-77
2021/09/10 06:04:36;;;;;;;;;5.00;4.33;;;;;22.19;66.99;100934.34;5044598;28;59927;-77
2021/09/10 06:07:01;;;;;;;;;6.00;6.00;;;;;22.15;66.56;100930.88;5043919;28;59152;-78
2021/09/10 06:09:26;;;;;;;;;6.00;6.00;;;;;22.19;67.10;100956.75;5045744;28;46519;-76
2021/09/10 06:11:52;;;;;;;;;5.00;4.00;;;;;22.22;67.03;100950.38;5050278;28;50504;-75
2021/09/10 06:14:17;;;;;;;;;6.67;6.67;;;;;22.25;67.06;100938.63;5055775;28;45330;-75
2021/09/10 06:16:42;;;;;;;;;6.33;5.00;;;;;22.27;66.58;100932.28;5049141;28;55794;-79
2021/09/10 06:19:08;;;;;;;;;7.00;5.33;;;;;22.27;67.06;100934.97;5051131;28;45693;-77
2021/09/10 06:21:33;;;;;;;;;6.33;5.00;;;;;22.28;67.27;100943.91;5041731;28;45467;-76
2021/09/10 06:23:59;;;;;;;;;7.00;5.67;;;;;22.26;67.27;100943.06;5043569;28;46244;-77
2021/09/10 06:26:24;;;;;;;;;7.00;6.00;;;;;22.23;67.35;100952.13;5046243;28;45573;-76
2021/09/10 06:28:50;;;;;;;;;7.00;5.00;;;;;22.25;67.14;100949.38;5050199;28;45743;-77
2021/09/10 06:31:15;;;;;;;;;5.33;5.00;;;;;22.22;66.76;100951.25;5044960;28;45359;-76
2021/09/10 06:33:40;;;;;;;;;6.00;4.33;;;;;22.20;66.95;100958.50;5044460;28;47235;-77
2021/09/10 06:36:06;;;;;;;;;6.67;6.00;;;;;22.18;67.02;100954.13;5043151;28;58107;-78
2021/09/10 06:38:31;;;;;;;;;7.67;6.00;;;;;22.14;67.30;100953.34;5041558;28;46077;-76
2021/09/10 06:40:57;;;;;;;;;5.33;5.33;;;;;22.20;67.49;100957.63;5039719;28;51796;-75
2021/09/10 06:43:22;;;;;;;;;5.00;5.00;;;;;22.22;67.33;100963.84;5047750;28;47450;-75
2021/09/10 06:45:47;;;;;;;;;5.00;5.00;;;;;22.21;67.30;100954.91;5048592;28;46124;-76
2021/09/10 06:48:13;;;;;;;;;6.00;5.00;;;;;22.21;66.96;100960.28;5043945;28;45378;-76
2021/09/10 06:50:38;;;;;;;;;8.67;6.00;;;;;22.22;67.94;100966.53;5051088;28;45537;-79
2021/09/10 06:53:04;;;;;;;;;5.00;5.00;;;;;22.20;67.31;100969.25;5048391;28;46556;-76
2021/09/10 06:55:29;;;;;;;;;6.67;5.00;;;;;22.17;67.73;100968.50;5048565;28;45519;-76
2021/09/10 06:57:54;;;;;;;;;8.67;6.00;;;;;22.19;67.40;100980.94;5039045;28;45421;-78
2021/09/10 07:00:20;;;;;;;;;5.00;5.00;;;;;22.11;67.67;100968.72;5056882;28;45321;-75
2021/09/10 07:02:45;;;;;;;;;7.00;6.00;;;;;22.15;67.46;100981.97;5046739;28;60337;-75
2021/09/10 07:05:11;;;;;;;;;7.00;5.67;;;;;22.16;67.83;100982.88;5052286;28;54180;-75
2021/09/10 07:07:36;;;;;;;;;6.00;4.33;;;;;22.15;67.25;100986.47;5045426;28;45477;-75
2021/09/10 07:10:02;;;;;;;;;6.00;5.00;;;;;22.13;67.81;100997.31;5046470;28;45464;-75
2021/09/10 07:12:28;;;;;;;;;5.00;4.00;;;;;22.08;67.44;100999.22;5052349;28;48062;-76
2021/09/10 07:14:53;;;;;;;;;7.00;5.00;;;;;22.08;67.79;101004.63;5049176;28;45490;-75
2021/09/10 07:17:20;;;;;;;;;6.33;5.00;;;;;22.11;67.84;101001.88;5044362;28;45470;-75
2021/09/10 07:19:45;;;;;;;;;6.00;5.00;;;;;22.13;67.79;101005.38;5041367;28;45471;-75
2021/09/10 07:22:11;;;;;;;;;7.00;6.00;;;;;22.18;68.12;101000.72;5038468;28;55671;-75
2021/09/10 07:24:36;;;;;;;;;9.00;8.00;;;;;22.25;67.44;100997.81;5038590;28;54073;-76
2021/09/10 07:27:02;;;;;;;;;6.33;5.00;;;;;22.26;67.53;100992.38;5039310;28;53864;-75
2021/09/10 07:29:27;;;;;;;;;4.67;4.33;;;;;22.35;67.37;100992.06;5041487;28;45580;-75
2021/09/10 07:31:53;;;;;;;;;5.67;5.00;;;;;22.42;67.20;100987.31;5047539;28;46188;-75
2021/09/10 07:34:18;;;;;;;;;5.00;5.00;;;;;22.46;66.86;100995.25;5056433;28;45462;-75
2021/09/10 07:36:48;;;;;;;;;6.00;5.00;;;;;22.51;67.19;100996.91;5054159;28;45589;-75
2021/09/10 07:39:21;;;;;;;;;8.67;6.00;;;;;22.56;67.01;100998.47;5159787;22;45508;-77
2021/09/10 07:41:46;;;;;;;;;8.33;8.00;;;;;22.59;66.21;100986.75;5044864;28;46552;-74
2021/09/10 07:44:14;;;;;;;;;5.00;5.00;;;;;22.65;66.65;100997.28;5046266;28;45451;-74
2021/09/10 07:46:39;;;;;;;;;5.00;3.33;;;;;;;;5040957;28;45333;-75
2021/09/10 07:49:05;;;;;;;;;6.67;6.00;;;;;22.71;66.50;101010.50;5048392;28;45351;-76
2021/09/10 07:51:30;;;;;;;;;8.00;5.67;;;;;22.73;66.71;101005.94;5045707;28;50723;-76
2021/09/10 07:53:55;;;;;;;;;4.33;4.33;;;;;22.77;66.31;101015.66;5051599;28;47538;-76
2021/09/10 07:56:21;;;;;;;;;7.00;7.00;;;;;22.82;66.22;101010.13;5036417;28;51728;-76
2021/09/10 07:58:46;;;;;;;;;5.00;4.00;;;;;22.85;66.09;101010.91;5043672;28;45592;-75
2021/09/10 08:01:12;;;;;;;;;6.00;4.33;;;;;22.81;65.86;101006.56;5043901;28;59608;-76
2021/09/10 08:03:37;;;;;;;;;8.67;5.33;;;;;22.94;65.97;101012.38;5037704;28;45414;-78
2021/09/10 08:06:02;;;;;;;;;5.67;4.67;;;;;23.05;65.67;101020.06;5042924;28;45468;-78
2021/09/10 08:08:28;;;;;;;;;7.00;5.67;;;;;23.07;65.02;101018.22;5038809;28;45459;-76
2021/09/10 08:10:53;;;;;;;;;4.00;4.00;;;;;23.10;65.47;101021.66;5044030;28;49262;-76
2021/09/10 08:13:19;;;;;;;;;5.00;5.00;;;;;23.14;64.87;101017.03;5051198;28;45414;-75
2021/09/10 08:15:44;;;;;;;;;5.67;4.00;;;;;23.21;64.66;101019.41;5045499;28;45419;-78
2021/09/10 08:18:10;;;;;;;;;6.67;4.00;;;;;23.26;64.41;101021.94;5046180;28;45302;-76
2021/09/10 08:20:35;;;;;;;;;6.33;4.33;;;;;23.30;64.15;101026.28;5047813;28;46420;-76
2021/09/10 08:23:00;;;;;;;;;6.67;5.00;;;;;23.29;64.29;101027.22;5042003;28;57333;-77
2021/09/10 08:25:26;;;;;;;;;4.67;3.33;;;;;23.33;64.33;101030.66;5046635;28;51331;-76
2021/09/10 08:27:51;;;;;;;;;4.33;4.33;;;;;23.37;64.50;101030.47;5049832;28;45634;-75
2021/09/10 08:30:17;;;;;;;;;4.33;4.33;;;;;23.43;63.62;101032.06;5044710;28;46892;-78
2021/09/10 08:32:42;;;;;;;;;4.00;4.00;;;;;23.48;63.58;101036.31;5048950;28;45460;-76
2021/09/10 08:35:08;;;;;;;;;6.67;5.00;;;;;23.55;63.79;101034.28;5054881;28;54104;-75
2021/09/10 08:37:33;;;;;;;;;6.00;6.00;;;;;23.63;63.57;101034.88;5054283;28;45283;-77
2021/09/10 08:39:59;;;;;;;;;5.33;4.00;;;;;23.75;63.33;101042.47;5055174;28;46345;-76
2021/09/10 08:42:24;;;;;;;;;6.00;3.33;;;;;23.84;63.21;101030.44;5056171;28;45485;-75
2021/09/10 08:44:50;;;;;;;;;4.33;4.33;;;;;23.94;62.11;101041.75;5045393;28;53788;-75
2021/09/10 08:47:15;;;;;;;;;3.00;3.00;;;;;23.92;61.28;101044.50;5049729;28;52006;-75
2021/09/10 08:49:41;;;;;;;;;5.00;3.00;;;;;23.89;62.01;101044.63;5044240;28;59405;-75
2021/09/10 08:52:09;;;;;;;;;3.00;3.00;;;;;23.84;61.36;101046.63;5043524;28;45425;-73
2021/09/10 08:54:34;;;;;;;;;2.00;2.00;;;;;23.75;61.77;101036.19;5041718;28;45469;-75
2021/09/10 08:57:00;;;;;;;;;4.00;3.00;;;;;23.70;61.10;101051.69;5039674;28;45548;-74
2021/09/10 08:59:26;;;;;;;;;4.00;3.00;;;;;23.68;60.83;101050.88;5043160;28;55558;-77
2021/09/10 09:01:55;;;;;;;;;3.00;3.00;;;;;23.68;60.93;101056.28;5048402;28;60737;-76
2021/09/10 09:04:21;;;;;;;;;4.00;3.00;;;;;23.69;61.78;101052.63;5053670;28;45441;-75
2021/09/10 09:06:53;;;;;;;;;5.00;3.00;;;;;23.77;60.79;101058.59;5050583;28;45586;-75
2021/09/10 09:09:38;;;;;;;;;6.00;4.00;;;;;23.87;60.99;101062.69;5050897;28;45469;-74
2021/09/10 09:12:20;;;;;;;;;5.00;4.00;;;;;23.93;60.20;101057.03;5048731;28;45445;-76
2021/09/10 09:15:01;;;;;;;;;4.33;3.67;;;;;24.05;60.68;101053.84;5050304;28;45353;-75
2021/09/10 09:17:31;;;;;;;;;6.67;5.00;;;;;24.18;60.47;101045.22;5045568;28;45436;-74
2021/09/10 09:20:20;;;;;;;;;5.33;5.00;;;;;24.39;60.38;101051.56;5053842;28;46605;-75
2021/09/10 09:23:05;;;;;;;;;3.00;3.00;;;;;24.50;60.06;101051.97;5039839;28;45456;-75
2021/09/10 09:25:34;;;;;;;;;3.00;3.00;;;;;24.59;59.79;101058.81;5051191;28;45552;-77
2021/09/10 09:28:26;;;;;;;;;5.67;4.33;;;;;24.67;59.45;101057.53;5053105;28;45425;-75
2021/09/10 09:30:59;;;;;;;;;5.00;5.00;;;;;24.65;59.44;101050.44;5041289;28;46431;-76
2021/09/10 09:33:31;;;;;;;;;5.00;4.00;;;;;24.67;58.48;101053.97;5050364;28;45437;-75
2021/09/10 09:36:01;;;;;;;;;4.00;4.00;;;;;24.65;58.63;101053.13;5048327;28;45508;-77
2021/09/10 09:38:29;;;;;;;;;4.00;4.00;;;;;24.69;58.50;101060.16;5043236;28;45422;-75
2021/09/10 09:40:56;;;;;;;;;3.00;3.00;;;;;24.70;59.12;101054.69;5043907;28;47870;-78
2021/09/10 09:43:23;;;;;;;;;4.67;3.00;;;;;24.69;58.42;101057.47;5043519;28;45535;-75
2021/09/10 09:45:51;;;;;;;;;5.00;3.00;;;;;24.67;58.43;101065.63;5043760;28;45473;-75
2021/09/10 09:48:16;;;;;;;;;4.00;4.00;;;;;24.67;58.00;101056.66;5045967;28;45263;-75
2021/09/10 09:50:42;;;;;;;;;4.00;4.00;;;;;24.69;58.29;101062.88;5048952;28;46396;-75
2021/09/10 09:53:07;;;;;;;;;6.00;3.00;;;;;24.68;58.44;101053.88;5043213;28;45155;-75
2021/09/10 09:55:34;;;;;;;;;6.00;3.33;;;;;24.74;58.28;101061.72;5041702;28;45439;-75
2021/09/10 09:58:03;;;;;;;;;4.00;4.00;;;;;24.84;58.32;101056.78;5047731;28;45469;-75
2021/09/10 10:00:29;;;;;;;;;4.00;4.00;;;;;24.91;58.70;101060.97;5058087;28;45949;-75
2021/09/10 10:02:54;;;;;;;;;4.67;4.00;;;;;24.98;58.24;101056.16;5057282;28;45385;-75
2021/09/10 10:05:20;;;;;;;;;6.00;5.00;;;;;24.98;57.31;101051.66;5058368;28;54477;-79
2021/09/10 10:07:52;;;;;;;;;6.00;5.00;;;;;25.01;57.43;101051.50;5039856;28;45374;-76
2021/09/10 10:10:20;;;;;;;;;7.00;4.33;;;;;25.04;58.24;101053.19;5057107;28;47535;-75
2021/09/10 10:12:46;;;;;;;;;4.00;4.00;;;;;25.01;57.36;101048.78;5040375;28;45390;-75
2021/09/10 10:15:42;;;;;;;;;5.00;5.00;;;;;24.85;57.51;101049.56;5057407;28;45413;-75
2021/09/10 10:18:07;;;;;;;;;4.33;4.00;;;;;24.72;58.22;101052.81;5050709;28;45649;-78
2021/09/10 10:20:45;;;;;;;;;4.00;4.00;;;;;24.57;57.15;101048.09;5057726;28;57141;-75
2021/09/10 10:23:44;;;;;;;;;3.67;3.67;;;;;24.51;57.85;101054.63;5052634;28;45364;-77
2021/09/10 10:26:12;;;;;;;;;4.00;4.00;;;;;24.47;58.18;101047.59;5057794;28;45442;-74
2021/09/10 10:28:54;;;;;;;;;3.00;2.33;;;;;24.45;57.81;101044.09;5058259;28;45710;-78
2021/09/10 10:31:58;;;;;;;;;3.00;3.00;;;;;24.47;58.16;101041.31;5056107;28;46879;-75
2021/09/10 10:34:24;;;;;;;;;3.33;3.33;;;;;24.62;57.56;101032.56;5047266;28;45394;-76
2021/09/10 10:36:50;;;;;;;;;4.00;4.00;;;;;24.77;57.85;101028.31;5049765;28;45271;-79
2021/09/10 10:39:18;;;;;;;;;3.00;3.00;;;;;24.81;57.12;101021.78;5047930;28;45489;-76
2021/09/10 10:41:47;;;;;;;;;4.33;4.00;;;;;24.86;57.32;101027.88;5048892;28;47526;-76
2021/09/10 10:44:35;;;;;;;;;3.00;3.00;;;;;24.90;56.82;101018.69;5050571;28;45789;-77
2021/09/10 10:47:07;;;;;;;;;5.00;5.00;;;;;24.98;55.24;101027.34;5050540;28;45584;-77
2021/09/10 10:49:33;;;;;;;;;5.33;4.00;;;;;25.02;55.58;101022.66;5039891;28;45529;-74
2021/09/10 10:51:59;;;;;;;;;3.00;3.00;;;;;25.08;55.19;101022.41;5050114;28;46502;-75
2021/09/10 10:54:29;;;;;;;;;4.00;3.00;;;;;25.22;54.88;101017.22;5036953;28;45438;-75
2021/09/10 10:56:54;;;;;;;;;3.33;2.00;;;;;25.42;54.65;101019.00;5051554;28;45339;-75
2021/09/10 10:59:21;;;;;;;;;6.00;4.00;;;;;25.55;54.98;101020.16;5040038;28;45322;-76
2021/09/10 11:02:20;;;;;;;;;3.00;3.00;;;;;25.56;54.58;101019.19;5056501;28;46742;-75
2021/09/10 11:05:08;;;;;;;;;3.00;3.00;;;;;25.45;54.21;101013.44;5055452;28;45330;-76
2021/09/10 11:07:34;;;;;;;;;6.33;3.33;;;;;25.31;57.28;101026.75;5038698;28;45520;-75
2021/09/10 11:10:07;;;;;;;;;3.00;3.00;;;;;25.15;58.69;101033.81;5054105;28;45576;-74
2021/09/10 11:12:34;;;;;;;;;5.00;3.33;;;;;24.88;62.46;101026.00;5047047;28;46555;-76
2021/09/10 11:14:59;;;;;;;;;7.00;6.00;;;;;24.72;61.36;101027.63;5047787;28;45490;-75
2021/09/10 11:17:28;;;;;;;;;2.00;2.00;;;;;24.54;62.11;101021.19;5054589;28;45445;-75
2021/09/10 11:19:57;;;;;;;;;5.67;4.33;;;;;24.46;62.97;101035.06;5049596;28;45492;-75
2021/09/10 11:22:23;;;;;;;;;4.00;4.00;;;;;24.36;62.10;101031.00;5052815;28;46557;-75
2021/09/10 11:24:49;;;;;;;;;4.33;4.33;;;;;24.28;63.46;101030.41;5044191;28;45500;-75